sensor_id;sensor_type;location;lat;lon;timestamp;P1;durP1;ratioP1;P2;durP2;ratioP2
46116;SDS011;32591;48.102;11.772;2024-02-21T00:00:38;4.30;;;1.63;;
46116;SDS011;32591;48.102;11.772;2024-02-21T00:03:27;3.35;;;1.40;;
46116;SDS011;32591;48.102;11.772;2024-02-21T00:09:01;5.95;;;1.45;;
46116;SDS011;32591;48.102;11.772;2024-02-21T00:11:47;2.67;;;1.35;;
46116;SDS011;32591;48.102;11.772;2024-02-21T00:14:34;3.63;;;1.55;;
46116;SDS011;32591;48.102;11.772;2024-02-21T00:17:20;6.05;;;2.22;;
46116;SDS011;32591;48.102;11.772;2024-02-21T00:20:09;9.80;;;1.87;;
46116;SDS011;32591;48.102;11.772;2024-02-21T00:22:57;4.88;;;1.50;;
46116;SDS011;32591;48.102;11.772;2024-02-21T00:25:44;4.03;;;1.92;;
46116;SDS011;32591;48.102;11.772;2024-02-21T00:28:31;4.90;;;2.03;;
46116;SDS011;32591;48.102;11.772;2024-02-21T00:31:18;4.22;;;1.63;;
46116;SDS011;32591;48.102;11.772;2024-02-21T00:34:04;5.10;;;1.90;;
46116;SDS011;32591;48.102;11.772;2024-02-21T00:36:53;5.30;;;1.75;;
46116;SDS011;32591;48.102;11.772;2024-02-21T00:42:27;5.07;;;1.70;;
46116;SDS011;32591;48.102;11.772;2024-02-21T00:45:14;5.03;;;1.45;;
46116;SDS011;32591;48.102;11.772;2024-02-21T00:48:01;2.58;;;1.55;;
46116;SDS011;32591;48.102;11.772;2024-02-21T00:50:48;3.93;;;2.23;;
46116;SDS011;32591;48.102;11.772;2024-02-21T00:53:36;1.83;;;1.17;;
46116;SDS011;32591;48.102;11.772;2024-02-21T00:56:23;2.72;;;1.52;;
46116;SDS011;32591;48.102;11.772;2024-02-21T00:59:10;2.72;;;1.20;;
46116;SDS011;32591;48.102;11.772;2024-02-21T01:01:56;4.07;;;1.35;;
46116;SDS011;32591;48.102;11.772;2024-02-21T01:04:43;3.50;;;1.50;;
46116;SDS011;32591;48.102;11.772;2024-02-21T01:07:30;3.03;;;1.67;;
46116;SDS011;32591;48.102;11.772;2024-02-21T01:10:18;2.17;;;1.27;;
46116;SDS011;32591;48.102;11.772;2024-02-21T01:13:04;2.53;;;1.13;;
46116;SDS011;32591;48.102;11.772;2024-02-21T01:15:52;3.08;;;1.30;;
46116;SDS011;32591;48.102;11.772;2024-02-21T01:18:39;2.20;;;1.23;;
46116;SDS011;32591;48.102;11.772;2024-02-21T01:21:26;2.95;;;1.10;;
46116;SDS011;32591;48.102;11.772;2024-02-21T01:24:13;1.80;;;1.07;;
46116;SDS011;32591;48.102;11.772;2024-02-21T01:27:01;3.47;;;1.42;;
46116;SDS011;32591;48.102;11.772;2024-02-21T01:29:48;1.80;;;0.98;;
46116;SDS011;32591;48.102;11.772;2024-02-21T01:32:35;3.28;;;1.10;;
46116;SDS011;32591;48.102;11.772;2024-02-21T01:35:21;1.52;;;1.08;;
46116;SDS011;32591;48.102;11.772;2024-02-21T01:38:08;3.13;;;1.10;;
46116;SDS011;32591;48.102;11.772;2024-02-21T01:40:55;1.27;;;0.73;;
46116;SDS011;32591;48.102;11.772;2024-02-21T01:43:44;1.65;;;1.02;;
46116;SDS011;32591;48.102;11.772;2024-02-21T01:49:17;1.40;;;0.80;;
46116;SDS011;32591;48.102;11.772;2024-02-21T01:52:05;1.92;;;0.70;;
46116;SDS011;32591;48.102;11.772;2024-02-21T01:54:53;2.70;;;1.00;;
46116;SDS011;32591;48.102;11.772;2024-02-21T01:57:39;3.83;;;1.13;;
46116;SDS011;32591;48.102;11.772;2024-02-21T02:00:28;2.33;;;1.33;;
46116;SDS011;32591;48.102;11.772;2024-02-21T02:03:14;1.23;;;1.08;;
46116;SDS011;32591;48.102;11.772;2024-02-21T02:06:02;1.45;;;0.77;;
46116;SDS011;32591;48.102;11.772;2024-02-21T02:08:51;1.88;;;0.80;;
46116;SDS011;32591;48.102;11.772;2024-02-21T02:11:37;1.63;;;0.77;;
46116;SDS011;32591;48.102;11.772;2024-02-21T02:14:25;2.70;;;1.42;;
46116;SDS011;32591;48.102;11.772;2024-02-21T02:17:13;1.23;;;0.85;;
46116;SDS011;32591;48.102;11.772;2024-02-21T02:20:01;0.90;;;0.75;;
46116;SDS011;32591;48.102;11.772;2024-02-21T02:22:50;2.85;;;0.82;;
46116;SDS011;32591;48.102;11.772;2024-02-21T02:25:38;3.60;;;1.02;;
46116;SDS011;32591;48.102;11.772;2024-02-21T02:28:25;2.47;;;1.00;;
46116;SDS011;32591;48.102;11.772;2024-02-21T02:31:12;2.22;;;0.80;;
46116;SDS011;32591;48.102;11.772;2024-02-21T02:33:59;1.15;;;0.70;;
46116;SDS011;32591;48.102;11.772;2024-02-21T02:36:46;1.00;;;0.70;;
46116;SDS011;32591;48.102;11.772;2024-02-21T02:39:34;1.45;;;0.75;;
46116;SDS011;32591;48.102;11.772;2024-02-21T02:42:22;2.13;;;1.17;;
46116;SDS011;32591;48.102;11.772;2024-02-21T02:47:56;1.15;;;0.75;;
46116;SDS011;32591;48.102;11.772;2024-02-21T02:50:43;1.23;;;0.70;;
46116;SDS011;32591;48.102;11.772;2024-02-21T02:53:30;3.03;;;0.90;;
46116;SDS011;32591;48.102;11.772;2024-02-21T02:56:17;2.03;;;0.70;;
46116;SDS011;32591;48.102;11.772;2024-02-21T02:59:05;2.15;;;0.90;;
46116;SDS011;32591;48.102;11.772;2024-02-21T03:01:52;1.65;;;0.70;;
46116;SDS011;32591;48.102;11.772;2024-02-21T03:04:39;1.42;;;0.80;;
46116;SDS011;32591;48.102;11.772;2024-02-21T03:07:26;2.55;;;1.10;;
46116;SDS011;32591;48.102;11.772;2024-02-21T03:10:13;1.75;;;0.88;;
46116;SDS011;32591;48.102;11.772;2024-02-21T03:13:02;2.22;;;0.68;;
46116;SDS011;32591;48.102;11.772;2024-02-21T03:15:51;2.15;;;1.27;;
46116;SDS011;32591;48.102;11.772;2024-02-21T03:21:24;0.90;;;0.60;;
46116;SDS011;32591;48.102;11.772;2024-02-21T03:24:11;2.70;;;0.90;;
46116;SDS011;32591;48.102;11.772;2024-02-21T03:26:58;0.95;;;0.80;;
46116;SDS011;32591;48.102;11.772;2024-02-21T03:29:45;1.70;;;1.42;;
46116;SDS011;32591;48.102;11.772;2024-02-21T03:32:33;2.30;;;0.65;;
46116;SDS011;32591;48.102;11.772;2024-02-21T03:35:20;1.20;;;0.82;;
46116;SDS011;32591;48.102;11.772;2024-02-21T03:38:06;1.73;;;0.60;;
46116;SDS011;32591;48.102;11.772;2024-02-21T03:40:53;3.00;;;0.90;;
46116;SDS011;32591;48.102;11.772;2024-02-21T03:43:40;1.10;;;0.47;;
46116;SDS011;32591;48.102;11.772;2024-02-21T03:46:26;2.95;;;0.80;;
46116;SDS011;32591;48.102;11.772;2024-02-21T03:49:14;2.80;;;0.88;;
46116;SDS011;32591;48.102;11.772;2024-02-21T03:52:01;1.35;;;0.90;;
46116;SDS011;32591;48.102;11.772;2024-02-21T03:54:48;1.47;;;0.87;;
46116;SDS011;32591;48.102;11.772;2024-02-21T03:57:34;2.42;;;0.77;;
46116;SDS011;32591;48.102;11.772;2024-02-21T04:00:21;3.15;;;0.85;;
46116;SDS011;32591;48.102;11.772;2024-02-21T04:03:09;1.42;;;0.90;;
46116;SDS011;32591;48.102;11.772;2024-02-21T04:05:57;0.82;;;0.60;;
46116;SDS011;32591;48.102;11.772;2024-02-21T04:08:45;2.30;;;0.90;;
46116;SDS011;32591;48.102;11.772;2024-02-21T04:11:31;0.95;;;0.77;;
46116;SDS011;32591;48.102;11.772;2024-02-21T04:14:18;3.33;;;0.73;;
46116;SDS011;32591;48.102;11.772;2024-02-21T04:17:05;3.50;;;1.17;;
46116;SDS011;32591;48.102;11.772;2024-02-21T04:19:52;0.50;;;0.50;;
46116;SDS011;32591;48.102;11.772;2024-02-21T04:22:52;1.85;;;0.80;;
46116;SDS011;32591;48.102;11.772;2024-02-21T04:25:39;1.67;;;0.47;;
46116;SDS011;32591;48.102;11.772;2024-02-21T04:28:25;0.60;;;0.55;;
46116;SDS011;32591;48.102;11.772;2024-02-21T04:31:12;7.13;;;1.63;;
46116;SDS011;32591;48.102;11.772;2024-02-21T04:33:59;1.90;;;0.85;;
46116;SDS011;32591;48.102;11.772;2024-02-21T04:36:48;3.30;;;1.00;;
46116;SDS011;32591;48.102;11.772;2024-02-21T04:39:35;2.63;;;0.85;;
46116;SDS011;32591;48.102;11.772;2024-02-21T04:42:22;1.35;;;0.55;;
46116;SDS011;32591;48.102;11.772;2024-02-21T04:45:09;2.72;;;0.73;;
46116;SDS011;32591;48.102;11.772;2024-02-21T04:47:56;2.58;;;0.88;;
46116;SDS011;32591;48.102;11.772;2024-02-21T04:50:43;2.72;;;0.77;;
46116;SDS011;32591;48.102;11.772;2024-02-21T04:53:30;1.10;;;0.87;;
46116;SDS011;32591;48.102;11.772;2024-02-21T04:56:18;2.65;;;0.57;;
46116;SDS011;32591;48.102;11.772;2024-02-21T05:01:51;1.75;;;0.45;;
46116;SDS011;32591;48.102;11.772;2024-02-21T05:04:39;0.90;;;0.40;;
46116;SDS011;32591;48.102;11.772;2024-02-21T05:07:26;1.10;;;0.82;;
46116;SDS011;32591;48.102;11.772;2024-02-21T05:10:12;1.38;;;0.60;;
46116;SDS011;32591;48.102;11.772;2024-02-21T05:13:01;2.70;;;0.97;;
46116;SDS011;32591;48.102;11.772;2024-02-21T05:15:48;2.28;;;0.73;;
46116;SDS011;32591;48.102;11.772;2024-02-21T05:18:35;5.78;;;1.00;;
46116;SDS011;32591;48.102;11.772;2024-02-21T05:21:21;0.55;;;0.43;;
46116;SDS011;32591;48.102;11.772;2024-02-21T05:24:09;1.35;;;0.60;;
46116;SDS011;32591;48.102;11.772;2024-02-21T05:26:55;1.10;;;0.50;;
46116;SDS011;32591;48.102;11.772;2024-02-21T05:29:43;0.60;;;0.60;;
46116;SDS011;32591;48.102;11.772;2024-02-21T05:35:16;3.28;;;0.73;;
46116;SDS011;32591;48.102;11.772;2024-02-21T05:38:03;0.60;;;0.60;;
46116;SDS011;32591;48.102;11.772;2024-02-21T05:40:56;0.70;;;0.70;;
46116;SDS011;32591;48.102;11.772;2024-02-21T05:43:43;1.30;;;0.60;;
46116;SDS011;32591;48.102;11.772;2024-02-21T05:46:31;1.27;;;0.75;;
46116;SDS011;32591;48.102;11.772;2024-02-21T05:49:17;1.73;;;0.70;;
46116;SDS011;32591;48.102;11.772;2024-02-21T05:52:05;1.63;;;0.83;;
46116;SDS011;32591;48.102;11.772;2024-02-21T05:54:52;3.25;;;1.30;;
46116;SDS011;32591;48.102;11.772;2024-02-21T05:57:38;4.45;;;1.17;;
46116;SDS011;32591;48.102;11.772;2024-02-21T06:00:25;2.03;;;1.15;;
46116;SDS011;32591;48.102;11.772;2024-02-21T06:03:13;1.23;;;0.63;;
46116;SDS011;32591;48.102;11.772;2024-02-21T06:06:00;0.57;;;0.43;;
46116;SDS011;32591;48.102;11.772;2024-02-21T06:08:47;0.68;;;0.35;;
46116;SDS011;32591;48.102;11.772;2024-02-21T06:11:34;0.70;;;0.45;;
46116;SDS011;32591;48.102;11.772;2024-02-21T06:14:23;1.58;;;0.50;;
46116;SDS011;32591;48.102;11.772;2024-02-21T06:17:09;3.75;;;1.00;;
46116;SDS011;32591;48.102;11.772;2024-02-21T06:19:58;2.17;;;0.93;;
46116;SDS011;32591;48.102;11.772;2024-02-21T06:22:45;0.88;;;0.50;;
46116;SDS011;32591;48.102;11.772;2024-02-21T06:25:32;0.50;;;0.50;;
46116;SDS011;32591;48.102;11.772;2024-02-21T06:28:18;1.40;;;0.70;;
46116;SDS011;32591;48.102;11.772;2024-02-21T06:31:05;1.08;;;0.98;;
46116;SDS011;32591;48.102;11.772;2024-02-21T06:33:52;0.88;;;0.55;;
46116;SDS011;32591;48.102;11.772;2024-02-21T06:36:40;0.63;;;0.43;;
46116;SDS011;32591;48.102;11.772;2024-02-21T06:39:26;4.53;;;1.40;;
46116;SDS011;32591;48.102;11.772;2024-02-21T06:42:14;2.42;;;1.50;;
46116;SDS011;32591;48.102;11.772;2024-02-21T06:45:01;2.35;;;1.00;;
46116;SDS011;32591;48.102;11.772;2024-02-21T06:47:48;2.28;;;1.08;;
46116;SDS011;32591;48.102;11.772;2024-02-21T06:50:35;3.47;;;0.85;;
46116;SDS011;32591;48.102;11.772;2024-02-21T06:53:04;0.98;;;0.70;;
46116;SDS011;32591;48.102;11.772;2024-02-21T06:55:32;1.77;;;0.68;;
46116;SDS011;32591;48.102;11.772;2024-02-21T06:58:01;1.25;;;0.80;;
46116;SDS011;32591;48.102;11.772;2024-02-21T07:00:29;2.38;;;0.77;;
46116;SDS011;32591;48.102;11.772;2024-02-21T07:02:57;0.45;;;0.45;;
46116;SDS011;32591;48.102;11.772;2024-02-21T07:05:25;0.55;;;0.50;;
46116;SDS011;32591;48.102;11.772;2024-02-21T07:07:54;0.85;;;0.40;;
46116;SDS011;32591;48.102;11.772;2024-02-21T07:10:23;2.05;;;0.73;;
46116;SDS011;32591;48.102;11.772;2024-02-21T07:12:51;1.17;;;0.70;;
46116;SDS011;32591;48.102;11.772;2024-02-21T07:15:19;1.55;;;0.65;;
46116;SDS011;32591;48.102;11.772;2024-02-21T07:17:48;1.20;;;0.40;;
46116;SDS011;32591;48.102;11.772;2024-02-21T07:20:16;0.75;;;0.40;;
46116;SDS011;32591;48.102;11.772;2024-02-21T07:22:44;3.90;;;0.75;;
46116;SDS011;32591;48.102;11.772;2024-02-21T07:25:12;1.55;;;0.47;;
46116;SDS011;32591;48.102;11.772;2024-02-21T07:27:43;2.50;;;0.50;;
46116;SDS011;32591;48.102;11.772;2024-02-21T07:30:12;3.20;;;1.45;;
46116;SDS011;32591;48.102;11.772;2024-02-21T07:32:43;1.70;;;0.60;;
46116;SDS011;32591;48.102;11.772;2024-02-21T07:35:11;0.55;;;0.40;;
46116;SDS011;32591;48.102;11.772;2024-02-21T07:37:39;0.30;;;0.30;;
46116;SDS011;32591;48.102;11.772;2024-02-21T07:40:12;2.30;;;0.70;;
46116;SDS011;32591;48.102;11.772;2024-02-21T07:42:42;1.63;;;0.45;;
46116;SDS011;32591;48.102;11.772;2024-02-21T07:45:15;0.77;;;0.50;;
46116;SDS011;32591;48.102;11.772;2024-02-21T07:47:45;3.90;;;0.77;;
46116;SDS011;32591;48.102;11.772;2024-02-21T07:50:13;1.23;;;0.70;;
46116;SDS011;32591;48.102;11.772;2024-02-21T07:52:42;0.95;;;0.50;;
46116;SDS011;32591;48.102;11.772;2024-02-21T07:55:10;1.05;;;0.60;;
46116;SDS011;32591;48.102;11.772;2024-02-21T07:57:38;1.25;;;0.77;;
46116;SDS011;32591;48.102;11.772;2024-02-21T08:00:08;1.23;;;0.80;;
46116;SDS011;32591;48.102;11.772;2024-02-21T08:02:41;2.88;;;1.05;;
46116;SDS011;32591;48.102;11.772;2024-02-21T08:05:10;1.90;;;0.93;;
46116;SDS011;32591;48.102;11.772;2024-02-21T08:07:39;1.73;;;0.90;;
46116;SDS011;32591;48.102;11.772;2024-02-21T08:10:07;2.80;;;1.27;;
46116;SDS011;32591;48.102;11.772;2024-02-21T08:12:36;2.15;;;1.00;;
46116;SDS011;32591;48.102;11.772;2024-02-21T08:15:04;2.50;;;0.93;;
46116;SDS011;32591;48.102;11.772;2024-02-21T08:17:35;0.82;;;0.70;;
46116;SDS011;32591;48.102;11.772;2024-02-21T08:20:04;1.15;;;0.77;;
46116;SDS011;32591;48.102;11.772;2024-02-21T08:22:33;2.58;;;0.80;;
46116;SDS011;32591;48.102;11.772;2024-02-21T08:25:01;1.30;;;0.80;;
46116;SDS011;32591;48.102;11.772;2024-02-21T08:27:32;1.25;;;0.57;;
46116;SDS011;32591;48.102;11.772;2024-02-21T08:30:00;0.98;;;0.82;;
46116;SDS011;32591;48.102;11.772;2024-02-21T08:32:28;1.10;;;0.65;;
46116;SDS011;32591;48.102;11.772;2024-02-21T08:34:58;2.00;;;0.47;;
46116;SDS011;32591;48.102;11.772;2024-02-21T08:37:26;1.35;;;0.52;;
46116;SDS011;32591;48.102;11.772;2024-02-21T08:39:55;3.97;;;0.98;;
46116;SDS011;32591;48.102;11.772;2024-02-21T08:42:23;1.52;;;0.80;;
46116;SDS011;32591;48.102;11.772;2024-02-21T08:44:51;2.08;;;0.90;;
46116;SDS011;32591;48.102;11.772;2024-02-21T08:47:19;1.70;;;0.82;;
46116;SDS011;32591;48.102;11.772;2024-02-21T08:49:47;2.15;;;1.20;;
46116;SDS011;32591;48.102;11.772;2024-02-21T08:52:17;2.33;;;0.82;;
46116;SDS011;32591;48.102;11.772;2024-02-21T08:54:45;3.20;;;1.17;;
46116;SDS011;32591;48.102;11.772;2024-02-21T08:57:13;1.05;;;0.57;;
46116;SDS011;32591;48.102;11.772;2024-02-21T08:59:41;3.60;;;1.10;;
46116;SDS011;32591;48.102;11.772;2024-02-21T09:02:09;4.25;;;1.00;;
46116;SDS011;32591;48.102;11.772;2024-02-21T09:04:37;1.10;;;0.50;;
46116;SDS011;32591;48.102;11.772;2024-02-21T09:07:06;1.02;;;0.60;;
46116;SDS011;32591;48.102;11.772;2024-02-21T09:09:35;1.63;;;0.63;;
46116;SDS011;32591;48.102;11.772;2024-02-21T09:12:05;0.88;;;0.50;;
46116;SDS011;32591;48.102;11.772;2024-02-21T09:14:36;0.88;;;0.25;;
46116;SDS011;32591;48.102;11.772;2024-02-21T09:17:05;1.80;;;0.50;;
46116;SDS011;32591;48.102;11.772;2024-02-21T09:19:35;3.30;;;0.50;;
46116;SDS011;32591;48.102;11.772;2024-02-21T09:22:03;1.20;;;0.50;;
46116;SDS011;32591;48.102;11.772;2024-02-21T09:24:31;0.98;;;0.70;;
46116;SDS011;32591;48.102;11.772;2024-02-21T09:27:01;1.15;;;0.70;;
46116;SDS011;32591;48.102;11.772;2024-02-21T09:29:29;0.85;;;0.40;;
46116;SDS011;32591;48.102;11.772;2024-02-21T09:31:59;2.80;;;0.65;;
46116;SDS011;32591;48.102;11.772;2024-02-21T09:34:29;1.60;;;0.40;;
46116;SDS011;32591;48.102;11.772;2024-02-21T09:36:57;1.88;;;0.70;;
46116;SDS011;32591;48.102;11.772;2024-02-21T09:39:26;1.52;;;0.52;;
46116;SDS011;32591;48.102;11.772;2024-02-21T09:41:56;1.75;;;0.68;;
46116;SDS011;32591;48.102;11.772;2024-02-21T09:44:33;1.38;;;0.73;;
46116;SDS011;32591;48.102;11.772;2024-02-21T09:47:06;3.00;;;0.47;;
46116;SDS011;32591;48.102;11.772;2024-02-21T09:49:38;1.95;;;0.73;;
46116;SDS011;32591;48.102;11.772;2024-02-21T09:52:10;1.27;;;0.60;;
46116;SDS011;32591;48.102;11.772;2024-02-21T09:54:40;1.38;;;0.50;;
46116;SDS011;32591;48.102;11.772;2024-02-21T09:57:12;1.75;;;0.60;;
46116;SDS011;32591;48.102;11.772;2024-02-21T09:59:41;1.35;;;0.43;;
46116;SDS011;32591;48.102;11.772;2024-02-21T10:02:09;1.63;;;0.50;;
46116;SDS011;32591;48.102;11.772;2024-02-21T10:04:39;1.05;;;0.55;;
46116;SDS011;32591;48.102;11.772;2024-02-21T10:07:07;1.38;;;0.60;;
46116;SDS011;32591;48.102;11.772;2024-02-21T10:09:37;1.02;;;0.50;;
46116;SDS011;32591;48.102;11.772;2024-02-21T10:12:10;2.08;;;0.45;;
46116;SDS011;32591;48.102;11.772;2024-02-21T10:14:42;1.70;;;0.47;;
46116;SDS011;32591;48.102;11.772;2024-02-21T10:17:15;1.27;;;0.50;;
46116;SDS011;32591;48.102;11.772;2024-02-21T10:19:45;1.17;;;0.55;;
46116;SDS011;32591;48.102;11.772;2024-02-21T10:22:14;2.25;;;0.50;;
46116;SDS011;32591;48.102;11.772;2024-02-21T10:24:43;2.17;;;0.57;;
46116;SDS011;32591;48.102;11.772;2024-02-21T10:27:12;0.52;;;0.30;;
46116;SDS011;32591;48.102;11.772;2024-02-21T10:29:40;1.40;;;0.60;;
46116;SDS011;32591;48.102;11.772;2024-02-21T10:32:09;1.20;;;0.50;;
46116;SDS011;32591;48.102;11.772;2024-02-21T10:34:40;1.40;;;0.40;;
46116;SDS011;32591;48.102;11.772;2024-02-21T10:37:12;1.40;;;0.73;;
46116;SDS011;32591;48.102;11.772;2024-02-21T10:39:41;1.58;;;0.52;;
46116;SDS011;32591;48.102;11.772;2024-02-21T10:42:12;1.38;;;0.55;;
46116;SDS011;32591;48.102;11.772;2024-02-21T10:44:44;0.50;;;0.32;;
46116;SDS011;32591;48.102;11.772;2024-02-21T10:47:18;1.23;;;0.40;;
46116;SDS011;32591;48.102;11.772;2024-02-21T10:49:50;0.57;;;0.30;;
46116;SDS011;32591;48.102;11.772;2024-02-21T10:52:28;4.03;;;0.50;;
46116;SDS011;32591;48.102;11.772;2024-02-21T10:55:07;1.45;;;0.40;;
46116;SDS011;32591;48.102;11.772;2024-02-21T10:57:43;1.23;;;0.40;;
46116;SDS011;32591;48.102;11.772;2024-02-21T11:00:11;3.92;;;0.65;;
46116;SDS011;32591;48.102;11.772;2024-02-21T11:02:45;2.75;;;0.73;;
46116;SDS011;32591;48.102;11.772;2024-02-21T11:05:15;1.50;;;0.30;;
46116;SDS011;32591;48.102;11.772;2024-02-21T11:07:45;1.48;;;0.50;;
46116;SDS011;32591;48.102;11.772;2024-02-21T11:10:20;1.70;;;0.32;;
46116;SDS011;32591;48.102;11.772;2024-02-21T11:15:24;0.50;;;0.32;;
46116;SDS011;32591;48.102;11.772;2024-02-21T11:17:54;1.38;;;0.25;;
46116;SDS011;32591;48.102;11.772;2024-02-21T11:20:33;0.30;;;0.30;;
46116;SDS011;32591;48.102;11.772;2024-02-21T11:23:03;0.50;;;0.20;;
46116;SDS011;32591;48.102;11.772;2024-02-21T11:25:31;1.25;;;0.50;;
46116;SDS011;32591;48.102;11.772;2024-02-21T11:28:02;0.45;;;0.32;;
46116;SDS011;32591;48.102;11.772;2024-02-21T11:30:35;0.47;;;0.25;;
46116;SDS011;32591;48.102;11.772;2024-02-21T11:33:05;1.48;;;0.30;;
46116;SDS011;32591;48.102;11.772;2024-02-21T11:35:35;0.43;;;0.30;;
46116;SDS011;32591;48.102;11.772;2024-02-21T11:38:07;0.45;;;0.45;;
46116;SDS011;32591;48.102;11.772;2024-02-21T11:40:39;1.40;;;0.40;;
46116;SDS011;32591;48.102;11.772;2024-02-21T11:43:09;0.43;;;0.30;;
46116;SDS011;32591;48.102;11.772;2024-02-21T11:45:37;1.35;;;0.45;;
46116;SDS011;32591;48.102;11.772;2024-02-21T11:48:06;1.35;;;0.45;;
46116;SDS011;32591;48.102;11.772;2024-02-21T11:50:35;0.32;;;0.28;;
46116;SDS011;32591;48.102;11.772;2024-02-21T11:53:03;0.70;;;0.57;;
46116;SDS011;32591;48.102;11.772;2024-02-21T11:55:31;0.47;;;0.20;;
46116;SDS011;32591;48.102;11.772;2024-02-21T11:58:01;0.40;;;0.20;;
46116;SDS011;32591;48.102;11.772;2024-02-21T12:00:30;0.13;;;0.13;;
46116;SDS011;32591;48.102;11.772;2024-02-21T12:02:59;1.58;;;0.47;;
46116;SDS011;32591;48.102;11.772;2024-02-21T12:05:29;1.05;;;0.30;;
46116;SDS011;32591;48.102;11.772;2024-02-21T12:07:57;1.13;;;0.57;;
46116;SDS011;32591;48.102;11.772;2024-02-21T12:10:26;0.57;;;0.20;;
46116;SDS011;32591;48.102;11.772;2024-02-21T12:13:04;0.55;;;0.30;;
46116;SDS011;32591;48.102;11.772;2024-02-21T12:15:35;0.55;;;0.30;;
46116;SDS011;32591;48.102;11.772;2024-02-21T12:18:04;0.15;;;0.08;;
46116;SDS011;32591;48.102;11.772;2024-02-21T12:20:32;1.60;;;0.50;;
46116;SDS011;32591;48.102;11.772;2024-02-21T12:23:02;0.40;;;0.20;;
46116;SDS011;32591;48.102;11.772;2024-02-21T12:25:31;1.10;;;0.20;;
46116;SDS011;32591;48.102;11.772;2024-02-21T12:28:00;0.32;;;0.30;;
46116;SDS011;32591;48.102;11.772;2024-02-21T12:30:30;0.15;;;0.15;;
46116;SDS011;32591;48.102;11.772;2024-02-21T12:33:01;0.65;;;0.65;;
46116;SDS011;32591;48.102;11.772;2024-02-21T12:35:30;1.05;;;0.45;;
46116;SDS011;32591;48.102;11.772;2024-02-21T12:38:00;0.80;;;0.43;;
46116;SDS011;32591;48.102;11.772;2024-02-21T12:40:35;0.57;;;0.40;;
46116;SDS011;32591;48.102;11.772;2024-02-21T12:43:03;0.63;;;0.10;;
46116;SDS011;32591;48.102;11.772;2024-02-21T12:45:31;0.68;;;0.20;;
46116;SDS011;32591;48.102;11.772;2024-02-21T12:48:02;0.70;;;0.20;;
46116;SDS011;32591;48.102;11.772;2024-02-21T12:50:31;0.95;;;0.30;;
46116;SDS011;32591;48.102;11.772;2024-02-21T12:53:00;0.52;;;0.20;;
46116;SDS011;32591;48.102;11.772;2024-02-21T12:55:28;2.38;;;0.40;;
46116;SDS011;32591;48.102;11.772;2024-02-21T12:57:56;1.17;;;0.20;;
46116;SDS011;32591;48.102;11.772;2024-02-21T13:00:31;1.90;;;0.40;;
46116;SDS011;32591;48.102;11.772;2024-02-21T13:03:03;0.40;;;0.20;;
46116;SDS011;32591;48.102;11.772;2024-02-21T13:05:31;0.95;;;0.40;;
46116;SDS011;32591;48.102;11.772;2024-02-21T13:08:00;0.40;;;0.35;;
46116;SDS011;32591;48.102;11.772;2024-02-21T13:10:29;0.82;;;0.20;;
46116;SDS011;32591;48.102;11.772;2024-02-21T13:12:57;0.70;;;0.15;;
46116;SDS011;32591;48.102;11.772;2024-02-21T13:15:28;2.95;;;0.63;;
46116;SDS011;32591;48.102;11.772;2024-02-21T13:17:56;0.47;;;0.30;;
46116;SDS011;32591;48.102;11.772;2024-02-21T13:20:27;0.15;;;0.10;;
46116;SDS011;32591;48.102;11.772;2024-02-21T13:22:55;0.17;;;0.15;;
46116;SDS011;32591;48.102;11.772;2024-02-21T13:25:23;0.63;;;0.20;;
46116;SDS011;32591;48.102;11.772;2024-02-21T13:27:52;0.43;;;0.10;;
46116;SDS011;32591;48.102;11.772;2024-02-21T13:30:20;0.30;;;0.20;;
46116;SDS011;32591;48.102;11.772;2024-02-21T13:32:48;1.48;;;0.50;;
46116;SDS011;32591;48.102;11.772;2024-02-21T13:35:16;1.35;;;0.30;;
46116;SDS011;32591;48.102;11.772;2024-02-21T13:37:46;0.85;;;0.32;;
46116;SDS011;32591;48.102;11.772;2024-02-21T13:40:15;1.85;;;0.70;;
46116;SDS011;32591;48.102;11.772;2024-02-21T13:42:44;2.03;;;0.30;;
46116;SDS011;32591;48.102;11.772;2024-02-21T13:45:12;1.20;;;0.55;;
46116;SDS011;32591;48.102;11.772;2024-02-21T13:47:41;1.30;;;0.47;;
46116;SDS011;32591;48.102;11.772;2024-02-21T13:50:09;0.55;;;0.35;;
46116;SDS011;32591;48.102;11.772;2024-02-21T13:52:38;1.85;;;0.47;;
46116;SDS011;32591;48.102;11.772;2024-02-21T13:55:07;1.40;;;1.10;;
46116;SDS011;32591;48.102;11.772;2024-02-21T13:57:36;0.65;;;0.30;;
46116;SDS011;32591;48.102;11.772;2024-02-21T14:00:05;1.95;;;0.25;;
46116;SDS011;32591;48.102;11.772;2024-02-21T14:02:37;1.05;;;0.40;;
46116;SDS011;32591;48.102;11.772;2024-02-21T14:05:05;0.38;;;0.22;;
46116;SDS011;32591;48.102;11.772;2024-02-21T14:07:35;1.73;;;0.38;;
46116;SDS011;32591;48.102;11.772;2024-02-21T14:10:04;1.65;;;0.30;;
46116;SDS011;32591;48.102;11.772;2024-02-21T14:12:36;0.40;;;0.20;;
46116;SDS011;32591;48.102;11.772;2024-02-21T14:15:05;0.45;;;0.40;;
46116;SDS011;32591;48.102;11.772;2024-02-21T14:17:35;0.22;;;0.22;;
46116;SDS011;32591;48.102;11.772;2024-02-21T14:20:04;0.55;;;0.40;;
46116;SDS011;32591;48.102;11.772;2024-02-21T14:22:33;0.10;;;0.10;;
46116;SDS011;32591;48.102;11.772;2024-02-21T14:25:04;0.22;;;0.22;;
46116;SDS011;32591;48.102;11.772;2024-02-21T14:27:32;0.63;;;0.20;;
46116;SDS011;32591;48.102;11.772;2024-02-21T14:30:04;0.10;;;0.10;;
46116;SDS011;32591;48.102;11.772;2024-02-21T14:32:36;0.77;;;0.30;;
46116;SDS011;32591;48.102;11.772;2024-02-21T14:35:05;1.08;;;0.35;;
46116;SDS011;32591;48.102;11.772;2024-02-21T14:37:34;1.10;;;0.38;;
46116;SDS011;32591;48.102;11.772;2024-02-21T14:40:03;0.30;;;0.20;;
46116;SDS011;32591;48.102;11.772;2024-02-21T14:42:33;0.98;;;0.50;;
46116;SDS011;32591;48.102;11.772;2024-02-21T14:45:01;0.68;;;0.40;;
46116;SDS011;32591;48.102;11.772;2024-02-21T14:47:32;0.20;;;0.20;;
46116;SDS011;32591;48.102;11.772;2024-02-21T14:50:02;0.55;;;0.20;;
46116;SDS011;32591;48.102;11.772;2024-02-21T14:52:31;0.65;;;0.35;;
46116;SDS011;32591;48.102;11.772;2024-02-21T14:55:01;0.68;;;0.28;;
46116;SDS011;32591;48.102;11.772;2024-02-21T14:57:30;0.70;;;0.30;;
46116;SDS011;32591;48.102;11.772;2024-02-21T14:59:58;1.02;;;0.43;;
46116;SDS011;32591;48.102;11.772;2024-02-21T15:02:29;1.30;;;0.20;;
46116;SDS011;32591;48.102;11.772;2024-02-21T15:04:57;0.63;;;0.30;;
46116;SDS011;32591;48.102;11.772;2024-02-21T15:07:25;0.73;;;0.30;;
46116;SDS011;32591;48.102;11.772;2024-02-21T15:09:54;0.85;;;0.30;;
46116;SDS011;32591;48.102;11.772;2024-02-21T15:12:23;1.00;;;0.40;;
46116;SDS011;32591;48.102;11.772;2024-02-21T15:14:51;0.98;;;0.40;;
46116;SDS011;32591;48.102;11.772;2024-02-21T15:17:19;0.45;;;0.40;;
46116;SDS011;32591;48.102;11.772;2024-02-21T15:19:49;2.40;;;0.52;;
46116;SDS011;32591;48.102;11.772;2024-02-21T15:22:17;0.30;;;0.30;;
46116;SDS011;32591;48.102;11.772;2024-02-21T15:24:46;1.95;;;0.50;;
46116;SDS011;32591;48.102;11.772;2024-02-21T15:27:15;1.42;;;0.25;;
46116;SDS011;32591;48.102;11.772;2024-02-21T15:29:43;1.42;;;0.50;;
46116;SDS011;32591;48.102;11.772;2024-02-21T15:32:11;0.40;;;0.20;;
46116;SDS011;32591;48.102;11.772;2024-02-21T15:34:39;0.20;;;0.20;;
46116;SDS011;32591;48.102;11.772;2024-02-21T15:45:15;0.30;;;0.30;;
46116;SDS011;32591;48.102;11.772;2024-02-21T15:47:44;0.52;;;0.15;;
46116;SDS011;32591;48.102;11.772;2024-02-21T15:50:12;1.45;;;0.40;;
46116;SDS011;32591;48.102;11.772;2024-02-21T15:52:40;0.43;;;0.22;;
46116;SDS011;32591;48.102;11.772;2024-02-21T15:55:08;0.35;;;0.20;;
46116;SDS011;32591;48.102;11.772;2024-02-21T15:57:38;1.00;;;0.40;;